Time;durP1;ratioP1;P1;durP2;ratioP2;P2;SDS_P1;SDS_P2;PMS_P1;PMS_P2;Temp;Humidity;BMP_temperature;BMP_pressure;BME280_temperature;BME280_humidity;BME280_pressure;Samples;Min_cycle;Max_cycle;Signal;HPM_P1;HPM_P2
2022/07/12 00:01:58;;;;;;;8.13;3.08;;;23.30;92.10;;;;;;5083566;28;20048;-72
2022/07/12 00:04:23;;;;;;;6.72;2.63;;;23.20;92.30;;;;;;5088175;28;20050;-72
2022/07/12 00:06:49;;;;;;;5.30;3.03;;;23.20;92.40;;;;;;5084853;28;20488;-72
2022/07/12 00:09:15;;;;;;;4.20;2.85;;;23.10;92.20;;;;;;5092057;28;20021;-72
2022/07/12 00:11:42;;;;;;;7.95;3.17;;;23.10;92.40;;;;;;5085374;28;20025;-72
2022/07/12 00:14:09;;;;;;;3.70;2.55;;;23.00;92.50;;;;;;5097931;28;20028;-72
2022/07/12 00:16:35;;;;;;;6.82;3.00;;;23.00;92.80;;;;;;5092290;28;20016;-72
2022/07/12 00:19:01;;;;;;;6.47;3.42;;;22.90;93.00;;;;;;5097320;28;20028;-72
2022/07/12 00:21:27;;;;;;;5.85;3.47;;;22.90;93.00;;;;;;5096675;28;20452;-72
2022/07/12 00:23:53;;;;;;;3.58;2.83;;;22.80;93.20;;;;;;5097937;28;20069;-72
2022/07/12 00:26:19;;;;;;;5.90;2.85;;;22.80;93.50;;;;;;5086226;28;20056;-72
2022/07/12 00:28:45;;;;;;;3.08;2.75;;;22.70;93.60;;;;;;5080719;28;20485;-73
2022/07/12 00:31:11;;;;;;;3.65;2.70;;;22.70;93.90;;;;;;5081862;28;20045;-73
2022/07/12 00:33:37;;;;;;;4.82;2.65;;;22.60;94.00;;;;;;5085166;28;20012;-73
2022/07/12 00:36:03;;;;;;;4.38;2.53;;;22.60;94.20;;;;;;5084081;28;20381;-72
2022/07/12 00:38:29;;;;;;;6.40;4.00;;;22.50;94.40;;;;;;5089142;28;20114;-73
2022/07/12 00:40:55;;;;;;;6.68;4.05;;;22.50;94.30;;;;;;5084514;28;20056;-72
2022/07/12 00:43:20;;;;;;;9.02;3.28;;;22.50;94.50;;;;;;5092027;28;20114;-72
2022/07/12 00:45:46;;;;;;;7.78;3.15;;;22.50;94.50;;;;;;5085729;28;20063;-72
2022/07/12 00:48:13;;;;;;;3.95;2.88;;;22.40;94.70;;;;;;5093237;28;20024;-72
2022/07/12 00:50:39;;;;;;;4.53;3.00;;;22.40;94.80;;;;;;5091394;28;20465;-72
2022/07/12 00:53:05;;;;;;;4.63;2.92;;;22.40;94.80;;;;;;5094981;28;20044;-72
2022/07/12 00:55:31;;;;;;;6.60;3.35;;;22.30;94.80;;;;;;5095524;28;20032;-72
2022/07/12 00:57:57;;;;;;;6.93;2.83;;;22.30;95.00;;;;;;5098044;28;20044;-72
2022/07/12 01:00:25;;;;;;;4.63;2.95;;;22.30;95.10;;;;;;5085021;28;20078;-73
2022/07/12 01:02:55;;;;;;;4.90;3.20;;;22.30;95.10;;;;;;5079731;28;20025;-72
2022/07/12 01:05:22;;;;;;;3.63;2.78;;;22.30;95.30;;;;;;5082197;28;20032;-72
2022/07/12 01:07:49;;;;;;;5.93;3.00;;;22.40;95.30;;;;;;5082577;28;20060;-72
2022/07/12 01:10:14;;;;;;;8.57;2.78;;;22.40;95.10;;;;;;5083233;28;20028;-73
2022/07/12 01:12:41;;;;;;;8.07;2.90;;;22.40;95.30;;;;;;5086412;28;20012;-73
2022/07/12 01:15:08;;;;;;;3.45;2.95;;;22.40;95.40;;;;;;5095058;28;20016;-72
2022/07/12 01:17:35;;;;;;;5.57;2.95;;;22.30;95.60;;;;;;5096262;28;20035;-73
2022/07/12 01:20:04;;;;;;;7.45;3.25;;;22.30;95.80;;;;;;5093373;28;20056;-73
2022/07/12 01:22:35;;;;;;;12.55;4.10;;;22.20;96.10;;;;;;5097347;28;20110;-73
2022/07/12 01:25:03;;;;;;;5.18;3.15;;;22.20;96.10;;;;;;5094706;28;20032;-73
2022/07/12 01:27:29;;;;;;;10.50;3.15;;;22.30;96.30;;;;;;5078382;28;20029;-73
2022/07/12 01:29:56;;;;;;;4.68;3.13;;;22.30;96.30;;;;;;5080317;28;20046;-73
2022/07/12 01:32:25;;;;;;;4.25;2.53;;;22.40;96.00;;;;;;5079131;28;20032;-73
2022/07/12 01:34:59;;;;;;;5.45;2.78;;;22.50;96.20;;;;;;5084604;28;20046;-73
2022/07/12 01:37:30;;;;;;;5.97;2.97;;;22.50;96.20;;;;;;5082331;28;20017;-73
2022/07/12 01:39:57;;;;;;;4.72;2.83;;;22.50;96.00;;;;;;5087446;28;20495;-73
2022/07/12 01:42:25;;;;;;;5.05;2.90;;;22.60;96.20;;;;;;5082723;28;20093;-73
2022/07/12 01:44:53;;;;;;;6.03;2.75;;;22.60;96.20;;;;;;5089260;28;20039;-73
2022/07/12 01:47:20;;;;;;;7.22;3.22;;;22.60;96.30;;;;;;5087405;28;20027;-73
2022/07/12 01:49:46;;;;;;;5.75;2.78;;;22.70;96.70;;;;;;5092642;28;20027;-73
2022/07/12 01:52:13;;;;;;;6.82;3.00;;;22.80;96.40;;;;;;5089989;28;20044;-73
2022/07/12 01:54:39;;;;;;;3.67;2.40;;;22.80;96.40;;;;;;5095337;28;20442;-73
2022/07/12 01:57:05;;;;;;;6.03;2.97;;;22.80;96.40;;;;;;5095156;28;20082;-73
2022/07/12 01:59:32;;;;;;;7.75;2.85;;;22.90;96.70;;;;;;5083578;28;20024;-73
2022/07/12 02:01:59;;;;;;;5.68;2.90;;;22.90;96.90;;;;;;5083045;28;20029;-73
2022/07/12 02:04:25;;;;;;;4.80;2.45;;;22.90;96.90;;;;;;5079801;28;20395;-73
2022/07/12 02:06:51;;;;;;;6.88;2.67;;;22.90;97.10;;;;;;5079986;28;20024;-73
2022/07/12 02:09:17;;;;;;;3.78;2.80;;;22.90;97.30;;;;;;5083743;28;20021;-73
2022/07/12 02:11:44;;;;;;;4.13;2.75;;;22.90;97.70;;;;;;5081088;28;20073;-72
2022/07/12 02:14:12;;;;;;;11.13;3.60;;;22.90;97.90;;;;;;5092774;28;20020;-73
2022/07/12 02:16:38;;;;;;;7.72;2.83;;;22.80;98.10;;;;;;5092237;28;20016;-73
2022/07/12 02:19:04;;;;;;;6.28;2.90;;;22.90;98.20;;;;;;5095337;28;20016;-73
2022/07/12 02:21:30;;;;;;;8.93;2.88;;;22.80;98.40;;;;;;5094603;28;20058;-73
2022/07/12 02:23:56;;;;;;;7.72;3.10;;;22.80;98.60;;;;;;5097008;28;20017;-73
2022/07/12 02:26:22;;;;;;;12.43;3.85;;;22.80;98.80;;;;;;5082332;28;20056;-73
2022/07/12 02:28:48;;;;;;;6.53;3.28;;;22.80;99.00;;;;;;5078173;28;20017;-73
2022/07/12 02:31:13;;;;;;;5.75;2.90;;;22.70;99.00;;;;;;5078318;28;20115;-73
2022/07/12 02:33:39;;;;;;;5.20;2.88;;;22.60;99.20;;;;;;5082378;28;20020;-73
2022/07/12 02:36:05;;;;;;;10.40;4.22;;;22.40;99.70;;;;;;5070142;28;20017;-73
2022/07/12 02:38:31;;;;;;;4.47;2.92;;;22.30;99.90;;;;;;5086052;28;20051;-73
2022/07/12 02:40:57;;;;;;;7.18;3.35;;;22.20;99.90;;;;;;5083469;28;20024;-73
2022/07/12 02:43:25;;;;;;;6.00;3.45;;;22.10;99.90;;;;;;5089883;28;20048;-73
2022/07/12 02:45:57;;;;;;;6.13;3.35;;;22.00;99.90;;;;;;5085430;28;20476;-73
2022/07/12 02:48:23;;;;;;;7.43;3.05;;;21.90;99.90;;;;;;5091927;28;20032;-73
2022/07/12 02:50:49;;;;;;;5.47;3.10;;;21.80;99.90;;;;;;5088800;28;20028;-73
2022/07/12 02:53:15;;;;;;;6.05;3.58;;;21.70;99.90;;;;;;5093705;28;20123;-73
2022/07/12 02:55:41;;;;;;;7.15;3.13;;;21.60;99.90;;;;;;5093081;28;20029;-73
2022/07/12 02:58:11;;;;;;;5.85;3.65;;;21.60;99.90;;;;;;5095696;28;20028;-73
2022/07/12 03:00:38;;;;;;;9.77;4.50;;;21.50;99.90;;;;;;5094735;28;20024;-73
2022/07/12 03:03:04;;;;;;;10.75;3.60;;;21.50;99.90;;;;;;5077656;28;20035;-73
2022/07/12 03:05:29;;;;;;;4.55;3.30;;;21.40;99.90;;;;;;5084187;28;20103;-73
2022/07/12 03:07:57;;;;;;;6.03;3.72;;;21.40;99.90;;;;;;5089425;28;20066;-73
2022/07/12 03:10:22;;;;;;;10.25;5.00;;;21.30;99.90;;;;;;5098000;28;20023;-73
2022/07/12 03:12:48;;;;;;;4.75;3.50;;;21.30;99.90;;;;;;5083995;28;20025;-73
2022/07/12 03:15:14;;;;;;;7.55;3.47;;;21.20;99.90;;;;;;5098506;28;20028;-73
2022/07/12 03:17:40;;;;;;;7.18;4.32;;;21.20;99.90;;;;;;5099615;28;20028;-73
2022/07/12 03:20:08;;;;;;;10.25;4.78;;;21.10;99.90;;;;;;5095982;28;20480;-73
2022/07/12 03:22:34;;;;;;;8.02;4.00;;;21.10;99.90;;;;;;5088372;28;20055;-73
2022/07/12 03:25:00;;;;;;;7.32;3.97;;;21.00;99.90;;;;;;5086397;28;20031;-73
2022/07/12 03:27:26;;;;;;;7.30;4.43;;;21.00;99.90;;;;;;5082940;28;20796;-73
2022/07/12 03:29:52;;;;;;;5.28;4.10;;;21.00;99.90;;;;;;5086820;28;20040;-73
2022/07/12 03:32:18;;;;;;;9.98;4.40;;;20.90;99.90;;;;;;5086268;28;20039;-73
2022/07/12 03:34:44;;;;;;;8.90;3.50;;;20.80;99.90;;;;;;5089097;28;20012;-73
2022/07/12 03:37:10;;;;;;;8.80;3.90;;;20.70;99.90;;;;;;5090056;28;20075;-73
2022/07/12 03:39:36;;;;;;;8.18;4.72;;;20.70;99.90;;;;;;5095801;28;20020;-73
2022/07/12 03:42:02;;;;;;;6.50;4.30;;;20.70;99.90;;;;;;5095054;28;20054;-73
2022/07/12 03:44:30;;;;;;;6.80;3.55;;;20.70;99.90;;;;;;5091617;28;20024;-73
2022/07/12 03:46:55;;;;;;;4.85;3.88;;;20.70;99.90;;;;;;5097407;28;20059;-73
2022/07/12 03:49:21;;;;;;;12.23;5.35;;;20.70;99.90;;;;;;5094984;28;20052;-73
2022/07/12 03:51:47;;;;;;;9.75;4.70;;;20.60;99.90;;;;;;5097618;28;20047;-73
2022/07/12 03:54:13;;;;;;;10.98;4.45;;;20.60;99.90;;;;;;5095513;28;20024;-73
2022/07/12 03:59:23;;;;;;;10.90;4.45;;;20.50;99.90;;;;;;5083212;28;20027;-73
2022/07/12 04:01:49;;;;;;;6.93;4.03;;;20.50;99.90;;;;;;5082445;28;20036;-73
2022/07/12 04:04:15;;;;;;;6.80;4.00;;;20.40;99.90;;;;;;5087592;28;20020;-73
2022/07/12 04:06:41;;;;;;;10.43;4.30;;;20.40;99.90;;;;;;5084581;28;20028;-73
2022/07/12 04:09:06;;;;;;;6.22;3.65;;;20.30;99.90;;;;;;5089117;28;20039;-73
2022/07/12 04:11:33;;;;;;;5.78;4.35;;;20.30;99.90;;;;;;5085453;28;20493;-73
2022/07/12 04:13:59;;;;;;;5.85;3.90;;;20.30;99.90;;;;;;5096942;28;20403;-73
2022/07/12 04:16:26;;;;;;;4.35;3.92;;;20.30;99.90;;;;;;5092764;28;20028;-73
2022/07/12 04:18:53;;;;;;;11.73;4.22;;;20.30;99.90;;;;;;5094721;28;20021;-73
2022/07/12 04:21:19;;;;;;;6.38;4.53;;;20.20;99.90;;;;;;5095010;28;20047;-73
2022/07/12 04:23:45;;;;;;;8.40;3.70;;;20.20;99.90;;;;;;5098487;28;20028;-73
2022/07/12 04:26:11;;;;;;;8.77;4.28;;;20.20;99.90;;;;;;5086243;28;20027;-73
2022/07/12 04:28:37;;;;;;;6.20;3.88;;;20.20;99.90;;;;;;5080800;28;20012;-73
2022/07/12 04:31:03;;;;;;;4.03;3.53;;;20.20;99.90;;;;;;5079702;28;20502;-73
2022/07/12 04:33:29;;;;;;;5.80;3.63;;;20.20;99.90;;;;;;5083707;28;20023;-73
2022/07/12 04:35:55;;;;;;;4.40;3.90;;;20.20;99.90;;;;;;5083066;28;20017;-73
2022/07/12 04:38:20;;;;;;;5.80;3.70;;;20.10;99.90;;;;;;5088893;28;20058;-73
2022/07/12 04:40:46;;;;;;;5.63;3.90;;;20.20;99.90;;;;;;5083581;28;20070;-73
2022/07/12 04:43:12;;;;;;;6.35;4.50;;;20.20;99.90;;;;;;5091796;28;20527;-73
2022/07/12 04:45:38;;;;;;;8.85;4.40;;;20.20;99.90;;;;;;5086217;28;20027;-73
2022/07/12 04:48:04;;;;;;;6.80;3.75;;;20.20;99.90;;;;;;5092408;28;20487;-73
2022/07/12 04:50:30;;;;;;;9.77;4.28;;;20.30;99.90;;;;;;5090692;28;20056;-73
2022/07/12 04:52:55;;;;;;;5.05;4.30;;;20.30;99.90;;;;;;5095710;28;20435;-73
2022/07/12 04:55:21;;;;;;;8.38;3.65;;;20.30;99.90;;;;;;5095533;28;20081;-74
2022/07/12 04:57:47;;;;;;;5.28;4.53;;;20.40;99.90;;;;;;5096928;28;20095;-74
2022/07/12 05:00:13;;;;;;;10.88;4.72;;;20.50;99.90;;;;;;5098415;28;20480;-73
2022/07/12 05:02:39;;;;;;;7.32;4.35;;;20.60;99.90;;;;;;5078792;28;20453;-73
2022/07/12 05:05:05;;;;;;;6.78;4.55;;;20.70;99.90;;;;;;5080162;28;20416;-73
2022/07/12 05:07:31;;;;;;;6.10;4.25;;;20.70;99.90;;;;;;5083833;28;20433;-73
2022/07/12 05:09:57;;;;;;;6.22;4.28;;;20.80;99.90;;;;;;5082315;28;20075;-73
2022/07/12 05:12:23;;;;;;;11.10;4.47;;;20.80;99.90;;;;;;5086344;28;20028;-73
2022/07/12 05:14:49;;;;;;;8.65;4.07;;;20.90;99.90;;;;;;5092518;28;20024;-73
2022/07/12 05:17:14;;;;;;;9.23;4.28;;;21.10;99.90;;;;;;5095229;28;20388;-73
2022/07/12 05:19:40;;;;;;;6.75;4.10;;;21.20;99.90;;;;;;5094579;28;20024;-73
2022/07/12 05:22:06;;;;;;;4.97;3.60;;;21.20;99.90;;;;;;5095805;28;20023;-72
2022/07/12 05:24:32;;;;;;;9.98;3.83;;;21.20;99.90;;;;;;5097443;28;20035;-73
2022/07/12 05:26:57;;;;;;;6.15;4.32;;;21.30;99.90;;;;;;5090961;28;20025;-73
2022/07/12 05:29:23;;;;;;;7.65;4.40;;;21.40;99.90;;;;;;5077421;28;20028;-73
2022/07/12 05:31:49;;;;;;;10.27;4.35;;;21.50;99.90;;;;;;5081647;28;20012;-72
2022/07/12 05:34:15;;;;;;;6.95;4.18;;;21.50;99.90;;;;;;5081300;28;20335;-73
2022/07/12 05:36:41;;;;;;;9.50;4.00;;;21.60;99.90;;;;;;5089037;28;20016;-72
2022/07/12 05:39:07;;;;;;;7.57;4.45;;;21.60;99.90;;;;;;5092613;28;20020;-72
2022/07/12 05:41:33;;;;;;;6.22;3.78;;;21.70;99.90;;;;;;5095901;28;20099;-72
2022/07/12 05:43:58;;;;;;;9.02;3.78;;;21.80;99.90;;;;;;5095945;28;20028;-72
2022/07/12 05:46:24;;;;;;;5.47;4.07;;;21.90;99.90;;;;;;5085824;28;20024;-72
2022/07/12 05:48:50;;;;;;;6.68;3.65;;;22.00;99.90;;;;;;5079568;28;20032;-72
2022/07/12 05:54:00;;;;;;;5.82;3.40;;;22.30;99.90;;;;;;5093115;28;20040;-72
2022/07/12 05:56:26;;;;;;;5.22;3.20;;;22.50;99.90;;;;;;5094773;28;20020;-72
2022/07/12 05:58:52;;;;;;;5.80;3.13;;;22.70;99.90;;;;;;5093545;28;20032;-72
2022/07/12 06:01:18;;;;;;;6.10;2.92;;;22.80;99.90;;;;;;5095522;28;20027;-72
2022/07/12 06:03:44;;;;;;;5.05;3.38;;;23.00;99.90;;;;;;5082909;28;20028;-72
2022/07/12 06:06:10;;;;;;;5.07;3.58;;;23.30;99.90;;;;;;5078396;28;20043;-73
2022/07/12 06:08:36;;;;;;;5.65;3.38;;;23.40;99.90;;;;;;5077835;28;20028;-73
2022/07/12 06:11:02;;;;;;;5.22;3.08;;;23.60;99.90;;;;;;5094915;28;20072;-72
2022/07/12 06:13:28;;;;;;;4.35;3.50;;;23.60;99.90;;;;;;5095725;28;20016;-72
2022/07/12 06:15:55;;;;;;;6.80;3.38;;;23.80;99.90;;;;;;5096060;28;20061;-72
2022/07/12 06:18:21;;;;;;;7.30;3.42;;;23.90;99.90;;;;;;5094699;28;20030;-73
2022/07/12 06:20:48;;;;;;;6.20;2.88;;;24.00;99.90;;;;;;5094738;28;20073;-75
2022/07/12 06:23:13;;;;;;;6.60;3.13;;;23.90;99.90;;;;;;5078822;28;20021;-75
2022/07/12 06:25:40;;;;;;;5.30;2.90;;;24.10;99.90;;;;;;5076671;28;20021;-75
2022/07/12 06:28:06;;;;;;;17.90;3.83;;;24.10;99.90;;;;;;5077710;28;20107;-75
2022/07/12 06:30:32;;;;;;;8.48;3.40;;;24.20;99.90;;;;;;5077755;28;20013;-75
2022/07/12 06:32:58;;;;;;;4.80;2.95;;;24.30;99.90;;;;;;5078643;28;20100;-75
2022/07/12 06:35:24;;;;;;;4.70;2.80;;;24.40;99.90;;;;;;5076383;28;20055;-75
2022/07/12 06:37:50;;;;;;;5.80;2.95;;;24.50;99.90;;;;;;5077577;28;20024;-75
2022/07/12 06:40:17;;;;;;;4.55;3.00;;;24.60;99.90;;;;;;5076499;28;20021;-72
2022/07/12 06:42:43;;;;;;;4.90;2.78;;;24.70;99.90;;;;;;5079099;28;20021;-75
2022/07/12 06:45:09;;;;;;;3.17;2.80;;;24.80;99.90;;;;;;5098909;28;20020;-75
2022/07/12 06:47:36;;;;;;;5.45;3.28;;;24.90;99.90;;;;;;5099904;28;20024;-72
2022/07/12 06:50:03;;;;;;;9.27;2.90;;;25.00;99.90;;;;;;5093879;28;20021;-75
2022/07/12 06:52:29;;;;;;;6.55;3.58;;;25.10;99.90;;;;;;5081669;28;20225;-72
2022/07/12 06:54:55;;;;;;;10.70;3.25;;;25.10;99.90;;;;;;5077642;28;20017;-75
2022/07/12 06:57:21;;;;;;;4.55;3.10;;;25.20;99.90;;;;;;5079780;28;20389;-72
2022/07/12 06:59:48;;;;;;;5.07;2.40;;;25.10;99.90;;;;;;5079140;28;20043;-72
2022/07/12 07:02:14;;;;;;;6.53;2.92;;;25.20;99.90;;;;;;5092081;28;20028;-73
2022/07/12 07:04:40;;;;;;;6.30;3.00;;;25.30;99.90;;;;;;5088884;28;20021;-73
2022/07/12 07:07:05;;;;;;;8.73;3.10;;;25.40;99.90;;;;;;5096840;28;20036;-73
2022/07/12 07:09:31;;;;;;;5.32;2.47;;;25.50;99.90;;;;;;5096702;28;20027;-73
2022/07/12 07:11:57;;;;;;;6.10;2.88;;;25.70;99.90;;;;;;5099705;28;20032;-74
2022/07/12 07:14:23;;;;;;;4.40;2.60;;;25.90;99.90;;;;;;5099807;28;20023;-74
2022/07/12 07:16:49;;;;;;;3.55;2.33;;;26.10;99.90;;;;;;5098037;28;20106;-75
2022/07/12 07:19:15;;;;;;;4.20;2.50;;;26.20;99.90;;;;;;5081464;28;20051;-74
2022/07/12 07:21:40;;;;;;;4.45;1.90;;;26.40;99.80;;;;;;5083527;28;20031;-74
2022/07/12 07:24:06;;;;;;;5.60;1.88;;;26.50;99.20;;;;;;5083168;28;20075;-73
2022/07/12 07:26:34;;;;;;;5.28;2.35;;;26.60;97.60;;;;;;5085795;28;20028;-73
2022/07/12 07:31:44;;;;;;;10.30;2.25;;;26.80;98.20;;;;;;5093616;28;20063;-72
2022/07/12 07:34:10;;;;;;;4.32;1.83;;;26.90;96.80;;;;;;5081260;28;20480;-72
2022/07/12 07:36:36;;;;;;;8.93;2.28;;;27.10;97.50;;;;;;5084072;28;20024;-73
2022/07/12 07:39:02;;;;;;;3.92;1.98;;;27.30;96.90;;;;;;5083985;28;20115;-73
2022/07/12 07:41:28;;;;;;;5.70;1.95;;;27.40;96.00;;;;;;5093819;28;20032;-73
2022/07/12 07:43:53;;;;;;;5.80;2.58;;;27.50;95.40;;;;;;5096655;28;20028;-73
2022/07/12 07:46:19;;;;;;;7.68;2.30;;;27.50;95.40;;;;;;5096801;28;20101;-73
2022/07/12 07:48:45;;;;;;;9.45;2.10;;;27.60;95.30;;;;;;5099099;28;20028;-73
2022/07/12 07:51:11;;;;;;;6.72;2.47;;;27.70;95.50;;;;;;5094617;28;20019;-74
2022/07/12 07:53:37;;;;;;;6.28;2.28;;;27.80;94.60;;;;;;5078718;28;20044;-73
2022/07/12 07:56:02;;;;;;;3.78;2.10;;;28.00;94.10;;;;;;5075659;28;20020;-74
2022/07/12 07:58:28;;;;;;;3.75;2.10;;;28.00;94.20;;;;;;5080849;28;20063;-74
2022/07/12 08:00:54;;;;;;;9.52;1.90;;;28.10;94.10;;;;;;5093615;28;20008;-73
2022/07/12 08:03:20;;;;;;;4.13;2.10;;;28.20;94.10;;;;;;5087823;28;20028;-73
2022/07/12 08:05:47;;;;;;;5.18;2.15;;;28.20;93.30;;;;;;5080587;28;20042;-73
2022/07/12 08:08:13;;;;;;;6.35;2.53;;;28.30;93.40;;;;;;5081705;28;20020;-74
2022/07/12 08:10:39;;;;;;;8.38;2.33;;;28.40;92.30;;;;;;5086437;28;20089;-74
2022/07/12 08:13:05;;;;;;;6.82;1.90;;;28.40;92.30;;;;;;5112929;28;20147;-74
2022/07/12 08:15:32;;;;;;;3.92;2.05;;;28.40;91.70;;;;;;5096233;28;20031;-74
2022/07/12 08:17:58;;;;;;;9.02;2.13;;;28.50;91.60;;;;;;5097865;28;20028;-74
2022/07/12 08:20:24;;;;;;;4.05;2.08;;;28.50;90.30;;;;;;5095888;28;20042;-74
2022/07/12 08:22:50;;;;;;;6.03;2.78;;;28.50;90.80;;;;;;5099218;28;20039;-74
2022/07/12 08:25:16;;;;;;;8.70;1.75;;;28.50;90.40;;;;;;5081863;28;20020;-74
2022/07/12 08:27:43;;;;;;;2.85;2.17;;;28.50;90.10;;;;;;5080460;28;20091;-73
2022/07/12 08:30:10;;;;;;;6.20;1.95;;;28.60;90.80;;;;;;5095322;28;20016;-74
2022/07/12 08:32:36;;;;;;;2.88;1.75;;;28.70;90.40;;;;;;5087704;28;20104;-74
2022/07/12 08:35:02;;;;;;;4.72;1.73;;;28.80;90.10;;;;;;5095696;28;20047;-73
2022/07/12 08:37:28;;;;;;;11.27;2.42;;;28.80;90.50;;;;;;5094924;28;20472;-73
2022/07/12 08:39:54;;;;;;;5.15;1.50;;;28.90;90.30;;;;;;5090455;28;20046;-73
2022/07/12 08:42:20;;;;;;;3.78;1.80;;;29.00;90.30;;;;;;5083567;28;20031;-74
2022/07/12 08:44:55;;;;;;;2.75;1.77;;;29.10;90.40;;;;;;5091191;28;20103;-74
2022/07/12 08:47:21;;;;;;;7.72;2.05;;;29.20;88.40;;;;;;5090822;28;20035;-74
2022/07/12 08:50:12;;;;;;;5.35;1.80;;;29.30;88.90;;;;;;5091796;28;20016;-73
2022/07/12 08:52:43;;;;;;;5.45;2.10;;;29.40;87.10;;;;;;5089750;28;20408;-74
2022/07/12 08:55:17;;;;;;;8.75;2.00;;;29.50;88.00;;;;;;5091310;28;20024;-73
2022/07/12 08:57:44;;;;;;;5.07;2.45;;;29.60;87.60;;;;;;5093033;28;20031;-74
2022/07/12 09:00:10;;;;;;;2.97;1.73;;;29.60;85.80;;;;;;5093677;28;20366;-74
2022/07/12 09:02:51;;;;;;;5.38;2.08;;;29.60;84.30;;;;;;5094418;28;20020;-74
2022/07/12 09:05:20;;;;;;;5.43;1.77;;;29.70;87.80;;;;;;5081561;28;20030;-74
2022/07/12 09:07:46;;;;;;;3.13;1.90;;;29.80;86.50;;;;;;5086021;28;20040;-73
2022/07/12 09:10:14;;;;;;;4.40;2.00;;;30.00;87.10;;;;;;5079076;28;20019;-74
2022/07/12 09:12:41;;;;;;;3.65;1.63;;;30.10;84.60;;;;;;5077447;28;20017;-74
2022/07/12 09:15:19;;;;;;;2.80;1.80;;;30.20;85.60;;;;;;5089733;28;20028;-75
2022/07/12 09:18:12;;;;;;;3.30;1.92;;;30.30;82.50;;;;;;5096547;28;20110;-74
2022/07/12 09:20:40;;;;;;;5.10;2.00;;;30.30;85.20;;;;;;5078306;28;20020;-75
2022/07/12 09:23:09;;;;;;;4.22;2.25;;;30.40;83.60;;;;;;5090115;28;20097;-74
2022/07/12 09:25:36;;;;;;;2.10;1.50;;;30.40;84.20;;;;;;5076554;28;20111;-73
2022/07/12 09:28:07;;;;;;;3.45;1.67;;;30.40;83.40;;;;;;5084732;28;20055;-74
2022/07/12 09:30:36;;;;;;;5.88;1.85;;;30.50;84.20;;;;;;5076486;28;20092;-74
2022/07/12 09:36:10;;;;;;;3.15;1.70;;;30.70;80.90;;;;;;5095286;28;20027;-74
2022/07/12 09:38:45;;;;;;;3.75;2.03;;;30.70;81.60;;;;;;5092532;28;20119;-74
2022/07/12 09:41:17;;;;;;;4.07;1.73;;;30.70;81.50;;;;;;5095140;28;20020;-74
2022/07/12 09:43:43;;;;;;;3.70;1.98;;;30.80;81.90;;;;;;5094160;28;20052;-74
2022/07/12 09:46:10;;;;;;;4.60;2.05;;;30.90;80.70;;;;;;5095316;28;20051;-74
2022/07/12 09:48:37;;;;;;;3.20;1.80;;;30.90;80.60;;;;;;5096031;28;20103;-73
2022/07/12 09:51:04;;;;;;;4.18;1.65;;;31.00;79.60;;;;;;5094217;28;20370;-74
2022/07/12 09:53:37;;;;;;;6.50;2.20;;;31.10;79.60;;;;;;5097261;28;20190;-74
2022/07/12 09:56:05;;;;;;;2.38;1.60;;;31.10;77.30;;;;;;5096536;28;20017;-74
2022/07/12 09:58:47;;;;;;;5.07;1.85;;;31.20;80.50;;;;;;5096039;28;20031;-74
2022/07/12 10:01:15;;;;;;;10.70;2.50;;;31.30;77.00;;;;;;5091593;28;20028;-74
2022/07/12 10:03:43;;;;;;;7.22;1.95;;;31.30;78.70;;;;;;5096129;28;20017;-74
2022/07/12 10:06:11;;;;;;;3.17;1.70;;;31.40;73.60;;;;;;5093708;28;20024;-74
2022/07/12 10:08:36;;;;;;;4.68;1.70;;;31.40;75.20;;;;;;5093633;28;20028;-74
2022/07/12 10:11:03;;;;;;;2.58;1.70;;;31.40;75.80;;;;;;5096462;28;20096;-74
2022/07/12 10:13:30;;;;;;;6.22;1.65;;;31.40;74.90;;;;;;5096035;28;20023;-74
2022/07/12 10:16:01;;;;;;;13.80;2.50;;;31.50;75.90;;;;;;5096315;28;20013;-75
2022/07/12 10:18:28;;;;;;;6.72;2.60;;;31.60;76.60;;;;;;5096119;28;20063;-74
2022/07/12 10:20:54;;;;;;;6.68;2.00;;;31.60;76.30;;;;;;5095000;28;20024;-74
2022/07/12 10:23:26;;;;;;;3.17;2.00;;;31.70;77.10;;;;;;5094694;28;20085;-74
2022/07/12 10:25:52;;;;;;;4.68;1.70;;;31.70;74.10;;;;;;5095420;28;20024;-75
2022/07/12 10:28:18;;;;;;;6.63;1.80;;;31.80;73.90;;;;;;5094942;28;20031;-74
2022/07/12 10:30:48;;;;;;;3.42;1.63;;;31.90;74.20;;;;;;5087200;28;20040;-74
2022/07/12 10:33:22;;;;;;;3.38;2.08;;;31.90;74.70;;;;;;5077936;28;20051;-74
2022/07/12 10:36:17;;;;;;;4.65;1.83;;;31.90;72.80;;;;;;5082266;28;20021;-74
2022/07/12 10:39:13;;;;;;;5.63;1.92;;;31.90;73.10;;;;;;5077788;28;20107;-74
2022/07/12 10:41:41;;;;;;;3.38;2.13;;;32.00;73.10;;;;;;5088392;28;20032;-75
2022/07/12 10:44:07;;;;;;;2.92;1.95;;;32.00;75.10;;;;;;5085157;28;20024;-74
2022/07/12 10:46:34;;;;;;;3.38;2.15;;;32.00;70.90;;;;;;5091387;28;20020;-75
2022/07/12 10:49:26;;;;;;;6.28;1.90;;;32.10;73.90;;;;;;5087828;28;20464;-74
2022/07/12 10:52:11;;;;;;;3.97;2.00;;;32.20;73.00;;;;;;5085350;28;20028;-74
2022/07/12 10:54:40;;;;;;;3.17;2.00;;;32.20;73.20;;;;;;5093810;28;20029;-74
2022/07/12 10:57:07;;;;;;;4.00;2.07;;;32.30;73.10;;;;;;5095714;28;20016;-74
2022/07/12 10:59:35;;;;;;;4.80;1.95;;;32.30;72.80;;;;;;5090441;28;20290;-74
2022/07/12 11:02:00;;;;;;;4.88;2.10;;;32.30;71.80;;;;;;5078030;28;20021;-74
2022/07/12 11:04:27;;;;;;;4.47;2.00;;;32.40;72.40;;;;;;5080881;28;20032;-74
2022/07/12 11:06:56;;;;;;;3.83;2.20;;;32.40;72.90;;;;;;5080796;28;20035;-74
2022/07/12 11:09:23;;;;;;;4.85;1.88;;;32.50;71.40;;;;;;5093096;28;20028;-74
2022/07/12 11:11:50;;;;;;;3.58;1.67;;;32.50;71.40;;;;;;5094750;28;20073;-74
2022/07/12 11:14:32;;;;;;;2.65;2.03;;;32.40;69.80;;;;;;5086468;28;20112;-74
2022/07/12 11:16:59;;;;;;;3.97;1.75;;;32.40;71.20;;;;;;5094618;28;20032;-75
2022/07/12 11:19:28;;;;;;;2.63;1.60;;;32.50;71.00;;;;;;5095672;28;20016;-74
2022/07/12 11:21:55;;;;;;;3.92;1.58;;;32.60;70.90;;;;;;5081155;28;20028;-74
2022/07/12 11:24:25;;;;;;;4.88;2.17;;;32.70;69.50;;;;;;5086568;28;20029;-74
2022/07/12 11:26:54;;;;;;;5.47;2.00;;;32.80;70.40;;;;;;5091076;28;20028;-75
2022/07/12 11:29:22;;;;;;;7.40;2.10;;;32.80;69.70;;;;;;5093633;28;20505;-74
2022/07/12 11:31:49;;;;;;;5.10;2.13;;;32.80;68.70;;;;;;5097500;28;20032;-74
2022/07/12 11:34:25;;;;;;;8.10;1.67;;;32.80;70.00;;;;;;5098999;28;20798;-74
2022/07/12 11:36:58;;;;;;;3.35;2.15;;;32.90;69.00;;;;;;5078825;28;20088;-74
2022/07/12 11:39:39;;;;;;;3.50;1.60;;;32.90;68.10;;;;;;5083128;28;20024;-75
2022/07/12 11:42:06;;;;;;;4.07;1.77;;;33.00;67.80;;;;;;5095242;28;20032;-74
2022/07/12 11:44:52;;;;;;;4.70;1.50;;;33.00;67.20;;;;;;5098796;28;20024;-74
2022/07/12 11:47:19;;;;;;;3.10;1.85;;;33.00;70.50;;;;;;5099333;28;20085;-74
2022/07/12 11:49:47;;;;;;;6.53;1.92;;;33.10;69.20;;;;;;5097428;28;20021;-74
2022/07/12 11:52:22;;;;;;;8.57;2.10;;;33.20;67.30;;;;;;5092303;28;20053;-74
2022/07/12 11:54:49;;;;;;;5.78;1.52;;;33.40;68.20;;;;;;5096550;28;20042;-74
2022/07/12 11:57:18;;;;;;;5.28;1.77;;;33.40;66.90;;;;;;5098306;28;20572;-74
2022/07/12 11:59:44;;;;;;;4.28;1.83;;;33.60;66.80;;;;;;5090823;28;20017;-74
2022/07/12 12:02:18;;;;;;;4.53;1.80;;;33.50;64.40;;;;;;5081213;28;20027;-74
2022/07/12 12:04:54;;;;;;;5.95;2.20;;;33.50;66.70;;;;;;5094683;28;20012;-74
2022/07/12 12:07:22;;;;;;;4.15;1.98;;;33.60;66.10;;;;;;5095639;28;20027;-74
2022/07/12 12:10:00;;;;;;;3.85;1.73;;;33.60;66.20;;;;;;5090894;28;20073;-74
2022/07/12 12:12:41;;;;;;;4.32;1.75;;;33.60;66.30;;;;;;5081323;28;20021;-74
2022/07/12 12:15:09;;;;;;;5.35;1.98;;;33.60;66.90;;;;;;5094394;28;20024;-74
2022/07/12 12:17:36;;;;;;;5.70;1.80;;;33.80;66.00;;;;;;5089004;28;20028;-74
2022/07/12 12:20:12;;;;;;;8.57;1.80;;;33.80;65.90;;;;;;5092570;28;20403;-74
2022/07/12 12:22:39;;;;;;;4.25;2.10;;;34.00;65.30;;;;;;5099393;28;20039;-74
2022/07/12 12:25:06;;;;;;;3.05;1.95;;;34.00;63.60;;;;;;5096927;28;20031;-74
2022/07/12 12:27:32;;;;;;;5.40;2.20;;;34.00;63.00;;;;;;5097375;28;20028;-74
2022/07/12 12:30:05;;;;;;;4.53;2.55;;;33.90;63.80;;;;;;5098345;28;20024;-74
2022/07/12 12:32:55;;;;;;;3.50;2.08;;;34.00;64.70;;;;;;5097651;28;20034;-74
2022/07/12 12:35:22;;;;;;;;;;;34.10;63.30;;;;;;5081316;28;20024;-74
2022/07/12 12:37:55;;;;;;;2.35;1.50;;;34.20;63.10;;;;;;5092470;28;19933;-74
2022/07/12 12:40:24;;;;;;;5.30;2.05;;;34.40;61.60;;;;;;5091953;28;20028;-74
2022/07/12 12:42:51;;;;;;;4.40;1.92;;;34.30;61.10;;;;;;5086853;28;20095;-74
2022/07/12 12:45:20;;;;;;;3.25;1.42;;;34.40;62.60;;;;;;5089135;28;20052;-74
2022/07/12 12:47:57;;;;;;;4.28;1.63;;;34.40;63.30;;;;;;5095842;28;20016;-74
2022/07/12 12:50:39;;;;;;;7.18;1.90;;;34.50;62.10;;;;;;5089200;28;20082;-74
2022/07/12 12:53:24;;;;;;;3.60;1.77;;;34.70;62.60;;;;;;5097056;28;20506;-74
2022/07/12 12:55:52;;;;;;;3.72;2.03;;;34.70;60.70;;;;;;5098445;28;20031;-73
2022/07/12 12:58:19;;;;;;;5.35;2.00;;;34.70;60.10;;;;;;5094805;28;20012;-74
2022/07/12 13:00:47;;;;;;;2.72;1.77;;;34.80;62.70;;;;;;5095090;28;20034;-74